sensor_id;sensor_type;location;lat;lon;timestamp;temperature;humidity
9980;DHT22;5030;51.532;6.766;2022-08-07T00:00:32;12.70;1.00
9980;DHT22;5030;51.532;6.766;2022-08-07T00:02:58;12.70;1.00
9980;DHT22;5030;51.532;6.766;2022-08-07T00:05:26;12.60;1.00
9980;DHT22;5030;51.532;6.766;2022-08-07T00:07:52;12.60;99.90
9980;DHT22;5030;51.532;6.766;2022-08-07T00:10:18;12.50;99.90
9980;DHT22;5030;51.532;6.766;2022-08-07T00:12:43;12.40;1.00
9980;DHT22;5030;51.532;6.766;2022-08-07T00:15:09;12.40;1.00
9980;DHT22;5030;51.532;6.766;2022-08-07T00:17:36;12.30;1.00
9980;DHT22;5030;51.532;6.766;2022-08-07T00:20:03;12.30;99.90
9980;DHT22;5030;51.532;6.766;2022-08-07T00:22:28;12.20;99.90
9980;DHT22;5030;51.532;6.766;2022-08-07T00:24:54;12.20;1.00
9980;DHT22;5030;51.532;6.766;2022-08-07T00:27:19;12.10;1.00
9980;DHT22;5030;51.532;6.766;2022-08-07T00:29:45;12.10;1.00
9980;DHT22;5030;51.532;6.766;2022-08-07T00:32:11;12.10;1.00
9980;DHT22;5030;51.532;6.766;2022-08-07T00:34:38;12.20;99.90
9980;DHT22;5030;51.532;6.766;2022-08-07T00:37:04;12.20;99.90
9980;DHT22;5030;51.532;6.766;2022-08-07T00:39:30;12.10;1.00
9980;DHT22;5030;51.532;6.766;2022-08-07T00:41:57;12.10;99.90
9980;DHT22;5030;51.532;6.766;2022-08-07T00:44:23;12.10;69.30
9980;DHT22;5030;51.532;6.766;2022-08-07T00:46:49;12.00;99.90
9980;DHT22;5030;51.532;6.766;2022-08-07T00:49:15;12.00;99.90
9980;DHT22;5030;51.532;6.766;2022-08-07T00:51:41;12.00;99.90
9980;DHT22;5030;51.532;6.766;2022-08-07T00:54:07;12.00;99.90
9980;DHT22;5030;51.532;6.766;2022-08-07T00:56:33;11.90;1.00
9980;DHT22;5030;51.532;6.766;2022-08-07T00:58:59;11.90;1.00
9980;DHT22;5030;51.532;6.766;2022-08-07T01:01:25;11.90;99.10
9980;DHT22;5030;51.532;6.766;2022-08-07T01:03:51;11.80;99.90
9980;DHT22;5030;51.532;6.766;2022-08-07T01:06:18;11.80;99.90
9980;DHT22;5030;51.532;6.766;2022-08-07T01:08:44;11.70;1.00
9980;DHT22;5030;51.532;6.766;2022-08-07T01:11:12;11.70;99.90
9980;DHT22;5030;51.532;6.766;2022-08-07T01:13:38;11.70;99.90
9980;DHT22;5030;51.532;6.766;2022-08-07T01:16:05;11.70;1.00
9980;DHT22;5030;51.532;6.766;2022-08-07T01:18:31;11.60;1.00
9980;DHT22;5030;51.532;6.766;2022-08-07T01:21:11;11.50;1.00
9980;DHT22;5030;51.532;6.766;2022-08-07T01:23:40;11.60;1.00
9980;DHT22;5030;51.532;6.766;2022-08-07T01:26:14;11.50;99.90
9980;DHT22;5030;51.532;6.766;2022-08-07T01:28:42;11.50;1.00
9980;DHT22;5030;51.532;6.766;2022-08-07T01:31:08;11.40;1.00
9980;DHT22;5030;51.532;6.766;2022-08-07T01:33:34;11.40;99.90
9980;DHT22;5030;51.532;6.766;2022-08-07T01:36:00;11.40;1.00
9980;DHT22;5030;51.532;6.766;2022-08-07T01:38:27;11.40;99.90
9980;DHT22;5030;51.532;6.766;2022-08-07T01:40:58;11.40;1.00
9980;DHT22;5030;51.532;6.766;2022-08-07T01:43:25;11.40;1.00
9980;DHT22;5030;51.532;6.766;2022-08-07T01:45:52;11.40;99.90
9980;DHT22;5030;51.532;6.766;2022-08-07T01:48:18;11.30;1.00
9980;DHT22;5030;51.532;6.766;2022-08-07T01:51:06;11.30;99.90
9980;DHT22;5030;51.532;6.766;2022-08-07T01:53:35;11.20;1.00
9980;DHT22;5030;51.532;6.766;2022-08-07T01:56:09;11.20;1.00
9980;DHT22;5030;51.532;6.766;2022-08-07T01:58:41;11.10;1.00
9980;DHT22;5030;51.532;6.766;2022-08-07T02:01:11;11.10;1.00
9980;DHT22;5030;51.532;6.766;2022-08-07T02:03:42;11.10;99.90
9980;DHT22;5030;51.532;6.766;2022-08-07T02:06:12;11.10;1.00
9980;DHT22;5030;51.532;6.766;2022-08-07T02:08:41;11.10;99.90
9980;DHT22;5030;51.532;6.766;2022-08-07T02:11:09;11.10;1.00
9980;DHT22;5030;51.532;6.766;2022-08-07T02:13:36;11.10;99.90
9980;DHT22;5030;51.532;6.766;2022-08-07T02:16:03;11.10;1.00
9980;DHT22;5030;51.532;6.766;2022-08-07T02:18:33;11.10;1.00
9980;DHT22;5030;51.532;6.766;2022-08-07T02:21:02;11.00;99.90
9980;DHT22;5030;51.532;6.766;2022-08-07T02:23:30;11.00;1.00
9980;DHT22;5030;51.532;6.766;2022-08-07T02:26:00;11.00;1.00
9980;DHT22;5030;51.532;6.766;2022-08-07T02:28:28;11.00;1.00
9980;DHT22;5030;51.532;6.766;2022-08-07T02:30:56;11.00;1.00
9980;DHT22;5030;51.532;6.766;2022-08-07T02:33:24;10.90;99.90
9980;DHT22;5030;51.532;6.766;2022-08-07T02:35:52;10.90;1.00
9980;DHT22;5030;51.532;6.766;2022-08-07T02:38:21;10.90;1.00
9980;DHT22;5030;51.532;6.766;2022-08-07T02:40:47;10.90;1.00
9980;DHT22;5030;51.532;6.766;2022-08-07T02:43:14;10.90;1.00
9980;DHT22;5030;51.532;6.766;2022-08-07T02:45:41;10.90;99.90
9980;DHT22;5030;51.532;6.766;2022-08-07T02:48:09;10.80;49.60
9980;DHT22;5030;51.532;6.766;2022-08-07T02:50:37;10.80;99.90
9980;DHT22;5030;51.532;6.766;2022-08-07T02:53:11;10.80;1.00
9980;DHT22;5030;51.532;6.766;2022-08-07T02:55:44;10.70;99.90
9980;DHT22;5030;51.532;6.766;2022-08-07T02:58:14;10.80;1.00
9980;DHT22;5030;51.532;6.766;2022-08-07T03:00:41;10.80;1.00
9980;DHT22;5030;51.532;6.766;2022-08-07T03:03:08;10.70;99.90
9980;DHT22;5030;51.532;6.766;2022-08-07T03:05:36;10.70;99.90
9980;DHT22;5030;51.532;6.766;2022-08-07T03:08:04;10.70;1.00
9980;DHT22;5030;51.532;6.766;2022-08-07T03:10:31;10.80;1.00
9980;DHT22;5030;51.532;6.766;2022-08-07T03:12:58;10.70;99.90
9980;DHT22;5030;51.532;6.766;2022-08-07T03:15:24;10.70;1.00
9980;DHT22;5030;51.532;6.766;2022-08-07T03:17:50;10.70;1.00
9980;DHT22;5030;51.532;6.766;2022-08-07T03:20:16;10.70;99.90
9980;DHT22;5030;51.532;6.766;2022-08-07T03:22:44;10.60;1.00
9980;DHT22;5030;51.532;6.766;2022-08-07T03:25:10;10.50;99.90
9980;DHT22;5030;51.532;6.766;2022-08-07T03:27:36;10.50;1.00
9980;DHT22;5030;51.532;6.766;2022-08-07T03:30:02;10.50;1.00
9980;DHT22;5030;51.532;6.766;2022-08-07T03:32:39;10.50;1.00
9980;DHT22;5030;51.532;6.766;2022-08-07T03:35:15;10.50;1.00
9980;DHT22;5030;51.532;6.766;2022-08-07T03:37:43;10.50;1.00
9980;DHT22;5030;51.532;6.766;2022-08-07T03:40:10;10.50;1.00
9980;DHT22;5030;51.532;6.766;2022-08-07T03:42:37;10.60;1.00
9980;DHT22;5030;51.532;6.766;2022-08-07T03:45:04;10.50;1.00
9980;DHT22;5030;51.532;6.766;2022-08-07T03:47:30;10.60;1.00
9980;DHT22;5030;51.532;6.766;2022-08-07T03:49:57;10.60;1.00
9980;DHT22;5030;51.532;6.766;2022-08-07T03:52:26;10.60;1.00
9980;DHT22;5030;51.532;6.766;2022-08-07T03:55:02;10.60;1.00
9980;DHT22;5030;51.532;6.766;2022-08-07T03:57:29;10.60;79.80
9980;DHT22;5030;51.532;6.766;2022-08-07T03:59:56;10.60;99.90
9980;DHT22;5030;51.532;6.766;2022-08-07T04:02:22;10.60;2.40
9980;DHT22;5030;51.532;6.766;2022-08-07T04:04:49;10.50;99.90
9980;DHT22;5030;51.532;6.766;2022-08-07T04:07:18;10.60;31.90
9980;DHT22;5030;51.532;6.766;2022-08-07T04:09:48;10.60;99.90
9980;DHT22;5030;51.532;6.766;2022-08-07T04:12:15;10.60;99.90
9980;DHT22;5030;51.532;6.766;2022-08-07T04:14:42;10.50;38.10
9980;DHT22;5030;51.532;6.766;2022-08-07T04:17:08;10.50;56.90
9980;DHT22;5030;51.532;6.766;2022-08-07T04:19:35;10.50;98.50
9980;DHT22;5030;51.532;6.766;2022-08-07T04:22:01;10.50;99.90
9980;DHT22;5030;51.532;6.766;2022-08-07T04:24:28;10.50;99.90
9980;DHT22;5030;51.532;6.766;2022-08-07T04:26:54;10.50;99.90
9980;DHT22;5030;51.532;6.766;2022-08-07T04:29:20;10.60;99.90
9980;DHT22;5030;51.532;6.766;2022-08-07T04:31:45;10.70;99.90
9980;DHT22;5030;51.532;6.766;2022-08-07T04:34:11;10.70;1.00
9980;DHT22;5030;51.532;6.766;2022-08-07T04:36:39;10.80;1.00
9980;DHT22;5030;51.532;6.766;2022-08-07T04:39:05;10.80;1.00
9980;DHT22;5030;51.532;6.766;2022-08-07T04:41:31;10.90;1.00
9980;DHT22;5030;51.532;6.766;2022-08-07T04:43:57;10.90;1.00
9980;DHT22;5030;51.532;6.766;2022-08-07T04:49:09;10.90;99.90
9980;DHT22;5030;51.532;6.766;2022-08-07T04:51:50;10.90;99.90
9980;DHT22;5030;51.532;6.766;2022-08-07T05:05:24;11.20;1.00
9980;DHT22;5030;51.532;6.766;2022-08-07T05:13:44;11.40;99.90
9980;DHT22;5030;51.532;6.766;2022-08-07T05:16:13;11.40;33.20
9980;DHT22;5030;51.532;6.766;2022-08-07T05:18:46;11.50;1.00
9980;DHT22;5030;51.532;6.766;2022-08-07T05:21:13;11.60;1.00
9980;DHT22;5030;51.532;6.766;2022-08-07T05:23:58;11.70;1.00
9980;DHT22;5030;51.532;6.766;2022-08-07T05:26:26;11.70;1.00
9980;DHT22;5030;51.532;6.766;2022-08-07T05:28:55;11.80;99.90
9980;DHT22;5030;51.532;6.766;2022-08-07T05:31:26;11.80;99.90
9980;DHT22;5030;51.532;6.766;2022-08-07T05:33:52;11.90;51.30
9980;DHT22;5030;51.532;6.766;2022-08-07T05:36:20;11.90;99.90
9980;DHT22;5030;51.532;6.766;2022-08-07T05:38:46;11.90;99.90
9980;DHT22;5030;51.532;6.766;2022-08-07T05:41:12;11.90;99.90
9980;DHT22;5030;51.532;6.766;2022-08-07T05:43:39;12.00;99.90
9980;DHT22;5030;51.532;6.766;2022-08-07T05:46:06;12.00;99.90
9980;DHT22;5030;51.532;6.766;2022-08-07T05:48:32;12.10;1.00
9980;DHT22;5030;51.532;6.766;2022-08-07T05:51:00;12.20;1.00
9980;DHT22;5030;51.532;6.766;2022-08-07T05:53:26;12.30;1.00
9980;DHT22;5030;51.532;6.766;2022-08-07T05:55:53;12.40;99.90
9980;DHT22;5030;51.532;6.766;2022-08-07T05:58:21;12.50;1.00
9980;DHT22;5030;51.532;6.766;2022-08-07T06:00:49;12.60;99.90
9980;DHT22;5030;51.532;6.766;2022-08-07T06:03:18;12.70;1.00
9980;DHT22;5030;51.532;6.766;2022-08-07T06:05:46;12.80;1.00
9980;DHT22;5030;51.532;6.766;2022-08-07T06:08:12;12.90;1.00
9980;DHT22;5030;51.532;6.766;2022-08-07T06:10:38;13.00;99.90
9980;DHT22;5030;51.532;6.766;2022-08-07T06:13:04;13.10;1.00
9980;DHT22;5030;51.532;6.766;2022-08-07T06:15:30;13.20;1.00
9980;DHT22;5030;51.532;6.766;2022-08-07T06:17:59;13.30;1.00
9980;DHT22;5030;51.532;6.766;2022-08-07T06:20:25;13.40;99.90
9980;DHT22;5030;51.532;6.766;2022-08-07T06:22:52;13.50;62.10
9980;DHT22;5030;51.532;6.766;2022-08-07T06:25:18;13.60;43.20
9980;DHT22;5030;51.532;6.766;2022-08-07T06:27:44;13.70;10.30
9980;DHT22;5030;51.532;6.766;2022-08-07T06:30:10;13.80;1.00
9980;DHT22;5030;51.532;6.766;2022-08-07T06:32:35;13.90;1.00
9980;DHT22;5030;51.532;6.766;2022-08-07T06:35:01;14.00;1.00
9980;DHT22;5030;51.532;6.766;2022-08-07T06:37:27;14.00;1.00
9980;DHT22;5030;51.532;6.766;2022-08-07T06:39:53;14.20;1.00
9980;DHT22;5030;51.532;6.766;2022-08-07T06:42:34;14.30;1.00
9980;DHT22;5030;51.532;6.766;2022-08-07T06:45:07;14.40;1.00
9980;DHT22;5030;51.532;6.766;2022-08-07T06:47:35;14.40;1.00
9980;DHT22;5030;51.532;6.766;2022-08-07T06:50:01;14.50;1.00
9980;DHT22;5030;51.532;6.766;2022-08-07T06:52:33;14.60;1.00
9980;DHT22;5030;51.532;6.766;2022-08-07T06:55:02;14.80;1.00
9980;DHT22;5030;51.532;6.766;2022-08-07T06:57:29;14.90;1.00
9980;DHT22;5030;51.532;6.766;2022-08-07T06:59:56;15.00;1.00
9980;DHT22;5030;51.532;6.766;2022-08-07T07:02:24;15.10;1.00
9980;DHT22;5030;51.532;6.766;2022-08-07T07:04:51;15.20;1.00
9980;DHT22;5030;51.532;6.766;2022-08-07T07:07:17;15.10;1.00
9980;DHT22;5030;51.532;6.766;2022-08-07T07:09:44;15.30;1.00
9980;DHT22;5030;51.532;6.766;2022-08-07T07:15:17;15.60;1.00
9980;DHT22;5030;51.532;6.766;2022-08-07T07:17:47;15.60;1.00
9980;DHT22;5030;51.532;6.766;2022-08-07T07:20:29;15.80;1.00
9980;DHT22;5030;51.532;6.766;2022-08-07T07:22:56;16.10;99.90
9980;DHT22;5030;51.532;6.766;2022-08-07T07:25:23;16.10;99.90
9980;DHT22;5030;51.532;6.766;2022-08-07T07:28:09;16.20;99.90
9980;DHT22;5030;51.532;6.766;2022-08-07T07:30:41;16.20;99.90
9980;DHT22;5030;51.532;6.766;2022-08-07T07:33:10;16.40;99.90
9980;DHT22;5030;51.532;6.766;2022-08-07T07:35:37;16.50;99.90
9980;DHT22;5030;51.532;6.766;2022-08-07T07:38:06;16.60;99.90
9980;DHT22;5030;51.532;6.766;2022-08-07T07:40:33;16.70;99.90
9980;DHT22;5030;51.532;6.766;2022-08-07T07:43:04;16.80;99.90
9980;DHT22;5030;51.532;6.766;2022-08-07T07:45:31;16.80;99.90
9980;DHT22;5030;51.532;6.766;2022-08-07T07:47:58;17.00;99.90
9980;DHT22;5030;51.532;6.766;2022-08-07T07:50:25;17.10;99.90
9980;DHT22;5030;51.532;6.766;2022-08-07T07:52:52;17.10;99.90
9980;DHT22;5030;51.532;6.766;2022-08-07T07:55:19;17.20;99.90
9980;DHT22;5030;51.532;6.766;2022-08-07T07:57:49;17.40;99.90
9980;DHT22;5030;51.532;6.766;2022-08-07T08:00:16;17.40;99.90
9980;DHT22;5030;51.532;6.766;2022-08-07T08:02:45;17.40;99.90
9980;DHT22;5030;51.532;6.766;2022-08-07T08:05:12;17.60;99.90
9980;DHT22;5030;51.532;6.766;2022-08-07T08:07:41;17.70;99.90
9980;DHT22;5030;51.532;6.766;2022-08-07T08:10:08;17.90;99.90
9980;DHT22;5030;51.532;6.766;2022-08-07T08:12:34;18.00;99.90
9980;DHT22;5030;51.532;6.766;2022-08-07T08:15:01;18.10;99.90
9980;DHT22;5030;51.532;6.766;2022-08-07T08:17:28;18.10;99.90
9980;DHT22;5030;51.532;6.766;2022-08-07T08:20:01;18.30;99.90
9980;DHT22;5030;51.532;6.766;2022-08-07T08:22:28;18.40;99.90
9980;DHT22;5030;51.532;6.766;2022-08-07T08:25:12;18.50;99.90
9980;DHT22;5030;51.532;6.766;2022-08-07T08:27:58;18.60;99.90
9980;DHT22;5030;51.532;6.766;2022-08-07T08:30:26;18.60;99.90
9980;DHT22;5030;51.532;6.766;2022-08-07T08:32:57;18.70;99.90
9980;DHT22;5030;51.532;6.766;2022-08-07T08:35:25;18.80;99.90
9980;DHT22;5030;51.532;6.766;2022-08-07T08:37:56;19.00;99.90
9980;DHT22;5030;51.532;6.766;2022-08-07T08:40:30;19.10;99.90
9980;DHT22;5030;51.532;6.766;2022-08-07T08:43:10;19.20;99.90
9980;DHT22;5030;51.532;6.766;2022-08-07T08:45:42;19.30;99.90
9980;DHT22;5030;51.532;6.766;2022-08-07T08:50:51;19.50;99.90
9980;DHT22;5030;51.532;6.766;2022-08-07T08:56:20;19.70;99.90
9980;DHT22;5030;51.532;6.766;2022-08-07T08:58:55;19.80;99.90
9980;DHT22;5030;51.532;6.766;2022-08-07T09:01:30;20.00;99.90
9980;DHT22;5030;51.532;6.766;2022-08-07T09:05:08;20.10;99.90
9980;DHT22;5030;51.532;6.766;2022-08-07T09:07:23;20.20;99.90
9980;DHT22;5030;51.532;6.766;2022-08-07T09:10:16;20.20;99.90
9980;DHT22;5030;51.532;6.766;2022-08-07T09:13:12;20.30;99.90
9980;DHT22;5030;51.532;6.766;2022-08-07T09:16:01;20.40;99.90
9980;DHT22;5030;51.532;6.766;2022-08-07T09:21:34;21.00;99.90
9980;DHT22;5030;51.532;6.766;2022-08-07T09:24:30;21.00;99.90
9980;DHT22;5030;51.532;6.766;2022-08-07T09:27:39;20.90;99.90
9980;DHT22;5030;51.532;6.766;2022-08-07T09:30:08;20.90;99.90
9980;DHT22;5030;51.532;6.766;2022-08-07T09:35:27;21.20;99.90
9980;DHT22;5030;51.532;6.766;2022-08-07T10:02:41;22.40;99.90
9980;DHT22;5030;51.532;6.766;2022-08-07T10:13:19;22.80;99.90
9980;DHT22;5030;51.532;6.766;2022-08-07T10:19:05;22.80;99.90
9980;DHT22;5030;51.532;6.766;2022-08-07T10:27:19;23.20;99.90
9980;DHT22;5030;51.532;6.766;2022-08-07T10:38:58;23.10;99.90
9980;DHT22;5030;51.532;6.766;2022-08-07T10:41:35;22.70;99.90
9980;DHT22;5030;51.532;6.766;2022-08-07T10:46:53;22.90;99.90
9980;DHT22;5030;51.532;6.766;2022-08-07T10:52:05;23.30;99.90
9980;DHT22;5030;51.532;6.766;2022-08-07T10:54:50;23.30;99.90
9980;DHT22;5030;51.532;6.766;2022-08-07T10:57:33;23.40;99.90
9980;DHT22;5030;51.532;6.766;2022-08-07T11:00:07;23.90;99.90
9980;DHT22;5030;51.532;6.766;2022-08-07T11:08:08;24.20;99.90
9980;DHT22;5030;51.532;6.766;2022-08-07T11:10:44;24.00;99.90
9980;DHT22;5030;51.532;6.766;2022-08-07T11:16:21;24.20;99.90
9980;DHT22;5030;51.532;6.766;2022-08-07T11:18:55;24.50;99.90
9980;DHT22;5030;51.532;6.766;2022-08-07T11:21:44;24.90;99.90
9980;DHT22;5030;51.532;6.766;2022-08-07T11:24:29;24.90;99.90
9980;DHT22;5030;51.532;6.766;2022-08-07T11:32:22;25.70;99.90
9980;DHT22;5030;51.532;6.766;2022-08-07T11:34:56;26.10;99.90
9980;DHT22;5030;51.532;6.766;2022-08-07T11:40:50;26.10;99.90
9980;DHT22;5030;51.532;6.766;2022-08-07T11:43:33;26.00;99.90
9980;DHT22;5030;51.532;6.766;2022-08-07T12:00:13;26.20;99.90
9980;DHT22;5030;51.532;6.766;2022-08-07T12:03:19;26.20;99.90
9980;DHT22;5030;51.532;6.766;2022-08-07T12:08:39;26.60;99.90
9980;DHT22;5030;51.532;6.766;2022-08-07T12:11:19;26.70;99.90
9980;DHT22;5030;51.532;6.766;2022-08-07T12:14:00;26.50;99.90
9980;DHT22;5030;51.532;6.766;2022-08-07T12:16:28;26.40;99.90
9980;DHT22;5030;51.532;6.766;2022-08-07T12:19:18;26.60;99.90
9980;DHT22;5030;51.532;6.766;2022-08-07T12:24:37;27.20;99.90
9980;DHT22;5030;51.532;6.766;2022-08-07T12:27:15;27.10;99.90
9980;DHT22;5030;51.532;6.766;2022-08-07T12:30:03;27.30;99.90
9980;DHT22;5030;51.532;6.766;2022-08-07T12:32:41;27.00;99.90
9980;DHT22;5030;51.532;6.766;2022-08-07T12:35:11;27.30;99.90
9980;DHT22;5030;51.532;6.766;2022-08-07T12:37:39;27.60;99.90
9980;DHT22;5030;51.532;6.766;2022-08-07T12:40:06;27.90;99.90
9980;DHT22;5030;51.532;6.766;2022-08-07T12:42:33;28.30;99.90
9980;DHT22;5030;51.532;6.766;2022-08-07T12:45:08;28.30;99.90
9980;DHT22;5030;51.532;6.766;2022-08-07T12:47:58;28.10;99.90
9980;DHT22;5030;51.532;6.766;2022-08-07T12:50:49;28.30;99.90
9980;DHT22;5030;51.532;6.766;2022-08-07T12:56:50;27.90;99.90
9980;DHT22;5030;51.532;6.766;2022-08-07T12:59:19;27.60;99.90
9980;DHT22;5030;51.532;6.766;2022-08-07T13:05:30;28.50;99.90
9980;DHT22;5030;51.532;6.766;2022-08-07T13:16:39;28.50;99.90
9980;DHT22;5030;51.532;6.766;2022-08-07T13:22:17;28.40;99.90
9980;DHT22;5030;51.532;6.766;2022-08-07T13:24:52;28.30;99.90
9980;DHT22;5030;51.532;6.766;2022-08-07T13:27:36;28.20;99.90
9980;DHT22;5030;51.532;6.766;2022-08-07T13:30:07;28.00;99.90
9980;DHT22;5030;51.532;6.766;2022-08-07T13:36:05;26.30;99.90
9980;DHT22;5030;51.532;6.766;2022-08-07T13:43:41;26.60;99.90
9980;DHT22;5030;51.532;6.766;2022-08-07T13:46:09;26.90;99.90
9980;DHT22;5030;51.532;6.766;2022-08-07T13:48:38;27.20;99.90
9980;DHT22;5030;51.532;6.766;2022-08-07T13:51:05;27.20;99.90
9980;DHT22;5030;51.532;6.766;2022-08-07T13:53:38;27.50;99.90
9980;DHT22;5030;51.532;6.766;2022-08-07T13:56:05;28.00;99.90
9980;DHT22;5030;51.532;6.766;2022-08-07T13:58:40;28.50;99.90
9980;DHT22;5030;51.532;6.766;2022-08-07T14:01:30;28.60;99.90
9980;DHT22;5030;51.532;6.766;2022-08-07T14:03:59;27.70;99.90
9980;DHT22;5030;51.532;6.766;2022-08-07T14:06:34;27.50;99.90
9980;DHT22;5030;51.532;6.766;2022-08-07T14:09:02;26.70;99.90
9980;DHT22;5030;51.532;6.766;2022-08-07T14:11:30;26.40;99.90
9980;DHT22;5030;51.532;6.766;2022-08-07T14:14:03;26.20;99.90
9980;DHT22;5030;51.532;6.766;2022-08-07T14:16:35;25.90;99.90
9980;DHT22;5030;51.532;6.766;2022-08-07T14:19:04;26.30;99.90
9980;DHT22;5030;51.532;6.766;2022-08-07T14:21:45;26.50;99.90
9980;DHT22;5030;51.532;6.766;2022-08-07T14:24:28;26.80;99.90
9980;DHT22;5030;51.532;6.766;2022-08-07T14:27:20;27.30;99.90
9980;DHT22;5030;51.532;6.766;2022-08-07T14:29:47;27.60;99.90
9980;DHT22;5030;51.532;6.766;2022-08-07T14:32:16;27.60;99.90
9980;DHT22;5030;51.532;6.766;2022-08-07T14:34:44;28.00;99.90
9980;DHT22;5030;51.532;6.766;2022-08-07T14:37:12;28.30;99.90
9980;DHT22;5030;51.532;6.766;2022-08-07T14:39:41;28.30;99.90
9980;DHT22;5030;51.532;6.766;2022-08-07T14:42:14;28.20;99.90
9980;DHT22;5030;51.532;6.766;2022-08-07T14:44:51;28.10;99.90
9980;DHT22;5030;51.532;6.766;2022-08-07T14:47:17;28.10;99.90
9980;DHT22;5030;51.532;6.766;2022-08-07T14:49:44;28.00;99.90
9980;DHT22;5030;51.532;6.766;2022-08-07T14:52:11;27.80;99.90
9980;DHT22;5030;51.532;6.766;2022-08-07T14:54:39;28.00;99.90
9980;DHT22;5030;51.532;6.766;2022-08-07T14:57:10;28.40;99.90
9980;DHT22;5030;51.532;6.766;2022-08-07T14:59:37;28.00;99.90
9980;DHT22;5030;51.532;6.766;2022-08-07T15:02:17;27.90;99.90
9980;DHT22;5030;51.532;6.766;2022-08-07T15:04:46;27.90;99.90
9980;DHT22;5030;51.532;6.766;2022-08-07T15:07:18;28.20;99.90
9980;DHT22;5030;51.532;6.766;2022-08-07T15:09:47;28.20;99.90
9980;DHT22;5030;51.532;6.766;2022-08-07T15:12:25;28.00;99.90
9980;DHT22;5030;51.532;6.766;2022-08-07T15:15:28;27.90;99.90
9980;DHT22;5030;51.532;6.766;2022-08-07T15:18:00;28.40;99.90
9980;DHT22;5030;51.532;6.766;2022-08-07T15:20:30;28.40;99.90
9980;DHT22;5030;51.532;6.766;2022-08-07T15:22:59;28.40;99.90
9980;DHT22;5030;51.532;6.766;2022-08-07T15:25:31;28.70;99.90
9980;DHT22;5030;51.532;6.766;2022-08-07T15:27:59;28.90;99.90
9980;DHT22;5030;51.532;6.766;2022-08-07T15:30:26;29.30;99.90
9980;DHT22;5030;51.532;6.766;2022-08-07T15:32:54;28.90;99.90
9980;DHT22;5030;51.532;6.766;2022-08-07T15:35:22;29.30;99.90
9980;DHT22;5030;51.532;6.766;2022-08-07T15:37:53;29.40;99.90
9980;DHT22;5030;51.532;6.766;2022-08-07T15:40:21;29.30;99.90
9980;DHT22;5030;51.532;6.766;2022-08-07T15:45:37;28.30;99.90
9980;DHT22;5030;51.532;6.766;2022-08-07T15:48:13;28.10;99.90
9980;DHT22;5030;51.532;6.766;2022-08-07T15:50:46;28.60;99.90
9980;DHT22;5030;51.532;6.766;2022-08-07T15:55:54;27.80;99.90
9980;DHT22;5030;51.532;6.766;2022-08-07T15:58:27;27.70;99.90
9980;DHT22;5030;51.532;6.766;2022-08-07T16:00:56;27.80;99.90
9980;DHT22;5030;51.532;6.766;2022-08-07T16:03:24;27.90;99.90
9980;DHT22;5030;51.532;6.766;2022-08-07T16:05:51;28.00;99.90
9980;DHT22;5030;51.532;6.766;2022-08-07T16:08:22;27.90;99.90
9980;DHT22;5030;51.532;6.766;2022-08-07T16:11:15;27.70;99.90
9980;DHT22;5030;51.532;6.766;2022-08-07T16:25:05;26.80;99.90
9980;DHT22;5030;51.532;6.766;2022-08-07T16:28:08;26.80;99.90
9980;DHT22;5030;51.532;6.766;2022-08-07T16:30:46;26.70;99.90
9980;DHT22;5030;51.532;6.766;2022-08-07T16:33:15;26.70;99.90
9980;DHT22;5030;51.532;6.766;2022-08-07T16:38:41;26.50;99.90
9980;DHT22;5030;51.532;6.766;2022-08-07T16:44:27;26.20;99.90
9980;DHT22;5030;51.532;6.766;2022-08-07T16:47:32;25.90;99.90
9980;DHT22;5030;51.532;6.766;2022-08-07T16:55:47;26.10;99.90
9980;DHT22;5030;51.532;6.766;2022-08-07T17:09:43;26.10;99.90
9980;DHT22;5030;51.532;6.766;2022-08-07T17:12:18;26.50;99.90
9980;DHT22;5030;51.532;6.766;2022-08-07T17:15:06;26.40;99.90
9980;DHT22;5030;51.532;6.766;2022-08-07T17:17:54;26.50;99.90
9980;DHT22;5030;51.532;6.766;2022-08-07T17:23:01;26.30;99.90
9980;DHT22;5030;51.532;6.766;2022-08-07T17:25:44;26.30;99.90
9980;DHT22;5030;51.532;6.766;2022-08-07T17:28:18;26.00;99.90
9980;DHT22;5030;51.532;6.766;2022-08-07T17:30:55;26.10;99.90
9980;DHT22;5030;51.532;6.766;2022-08-07T17:33:28;26.00;99.90
9980;DHT22;5030;51.532;6.766;2022-08-07T17:35:59;26.00;99.90
9980;DHT22;5030;51.532;6.766;2022-08-07T17:38:38;25.80;99.90
9980;DHT22;5030;51.532;6.766;2022-08-07T17:41:29;25.60;99.90
9980;DHT22;5030;51.532;6.766;2022-08-07T17:44:01;25.50;99.90
9980;DHT22;5030;51.532;6.766;2022-08-07T17:49:35;25.20;99.90
9980;DHT22;5030;51.532;6.766;2022-08-07T17:52:17;24.90;99.90
9980;DHT22;5030;51.532;6.766;2022-08-07T17:54:49;24.60;99.90
9980;DHT22;5030;51.532;6.766;2022-08-07T17:57:28;24.60;99.90
9980;DHT22;5030;51.532;6.766;2022-08-07T18:00:01;24.50;99.90
9980;DHT22;5030;51.532;6.766;2022-08-07T18:02:46;24.30;99.90
9980;DHT22;5030;51.532;6.766;2022-08-07T18:05:30;24.10;99.90
9980;DHT22;5030;51.532;6.766;2022-08-07T18:13:47;24.10;99.90
9980;DHT22;5030;51.532;6.766;2022-08-07T18:18:50;24.00;99.90
9980;DHT22;5030;51.532;6.766;2022-08-07T18:26:33;23.80;99.90
9980;DHT22;5030;51.532;6.766;2022-08-07T18:29:10;23.70;99.90
9980;DHT22;5030;51.532;6.766;2022-08-07T18:32:06;23.40;99.90
9980;DHT22;5030;51.532;6.766;2022-08-07T18:37:26;23.10;99.90
9980;DHT22;5030;51.532;6.766;2022-08-07T18:43:04;22.70;99.90
9980;DHT22;5030;51.532;6.766;2022-08-07T18:56:44;21.70;99.90
9980;DHT22;5030;51.532;6.766;2022-08-07T18:59:13;21.70;99.90
9980;DHT22;5030;51.532;6.766;2022-08-07T19:01:45;21.60;99.90
9980;DHT22;5030;51.532;6.766;2022-08-07T19:04:15;21.50;99.90
9980;DHT22;5030;51.532;6.766;2022-08-07T19:06:52;21.30;99.90
9980;DHT22;5030;51.532;6.766;2022-08-07T19:09:34;21.30;99.90
9980;DHT22;5030;51.532;6.766;2022-08-07T19:12:17;21.10;99.90
9980;DHT22;5030;51.532;6.766;2022-08-07T19:17:25;20.80;99.90
9980;DHT22;5030;51.532;6.766;2022-08-07T19:20:17;20.90;99.90
9980;DHT22;5030;51.532;6.766;2022-08-07T19:23:01;20.70;99.90
9980;DHT22;5030;51.532;6.766;2022-08-07T19:25:31;20.70;99.90
9980;DHT22;5030;51.532;6.766;2022-08-07T19:28:02;20.50;99.90
9980;DHT22;5030;51.532;6.766;2022-08-07T19:30:33;20.30;99.90
9980;DHT22;5030;51.532;6.766;2022-08-07T19:33:02;20.10;99.90
9980;DHT22;5030;51.532;6.766;2022-08-07T19:35:29;20.00;99.90
9980;DHT22;5030;51.532;6.766;2022-08-07T19:37:58;19.80;99.90
9980;DHT22;5030;51.532;6.766;2022-08-07T19:40:26;19.70;99.90
9980;DHT22;5030;51.532;6.766;2022-08-07T19:42:52;19.60;99.90
9980;DHT22;5030;51.532;6.766;2022-08-07T19:45:22;19.60;99.90
9980;DHT22;5030;51.532;6.766;2022-08-07T19:47:51;19.40;99.90
9980;DHT22;5030;51.532;6.766;2022-08-07T19:50:20;19.30;99.90
9980;DHT22;5030;51.532;6.766;2022-08-07T19:52:47;19.20;99.90
9980;DHT22;5030;51.532;6.766;2022-08-07T19:55:17;19.10;99.90
9980;DHT22;5030;51.532;6.766;2022-08-07T19:57:46;18.90;99.90
9980;DHT22;5030;51.532;6.766;2022-08-07T20:00:18;18.80;99.90
9980;DHT22;5030;51.532;6.766;2022-08-07T20:03:02;18.70;99.90
9980;DHT22;5030;51.532;6.766;2022-08-07T20:05:34;18.80;99.90
9980;DHT22;5030;51.532;6.766;2022-08-07T20:08:06;18.80;99.90
9980;DHT22;5030;51.532;6.766;2022-08-07T20:10:34;18.70;99.90
9980;DHT22;5030;51.532;6.766;2022-08-07T20:13:15;18.60;99.90
9980;DHT22;5030;51.532;6.766;2022-08-07T20:15:42;18.50;99.90
9980;DHT22;5030;51.532;6.766;2022-08-07T20:18:08;18.50;99.90
9980;DHT22;5030;51.532;6.766;2022-08-07T20:20:35;18.50;99.90
9980;DHT22;5030;51.532;6.766;2022-08-07T20:23:07;18.60;99.90
9980;DHT22;5030;51.532;6.766;2022-08-07T20:25:36;18.60;99.90